North Menomonie, Wisconsin
Current Conditions -  °F | °C
As of 4:55 AM on Friday 19 Dec 2014 (Local Time) from KLUM Reporting Station
Overcast Overcast  
Wind Chill: 18°   Ceiling: 1200
Heat Index: 24°   Visibility: 7mi
Dew Point: 19°   Wind: 5mph
Humidity: 83%   Direction: 150°SSE
Pressure: 30.26"   Gusts: NA
Location:  44.857°N, 92.0071°W
Report Text: KLUM 191055Z AUTO 15004KT 7SM OVC012 M05/M07 A3026 RMK AO2 T10461071
Loading
Personal Weather Stations






























Interactive Weather Map New forecast layout! Learn more

10-Day Weather Forecast

Advertisements
Track Severe Weather on mobile